createdAt,value
2018-12-15T00:00:46.123Z,101429.78
2018-12-15T00:03:16.675Z,101423.73
2018-12-15T00:05:49.308Z,101427.44
2018-12-15T00:08:23.853Z,101433.08
2018-12-15T00:13:47.034Z,101433.95
2018-12-15T00:16:18.915Z,101434.52
2018-12-15T00:18:51.460Z,101428.55
2018-12-15T00:21:23.472Z,101442.41
2018-12-15T00:23:55.855Z,101442.76
2018-12-15T00:26:28.469Z,101437.04
2018-12-15T00:29:00.216Z,101434.52
2018-12-15T00:31:32.840Z,101431.83
2018-12-15T00:34:07.125Z,101431.20
2018-12-15T00:36:39.029Z,101434.05
2018-12-15T00:39:09.292Z,101434.33
2018-12-15T00:41:41.647Z,101436.66
2018-12-15T00:44:16.228Z,101438.88
2018-12-15T00:49:20.079Z,101429.20
2018-12-15T00:51:52.256Z,101431.84
2018-12-15T00:54:24.413Z,101432.67
2018-12-15T00:56:56.068Z,101432.31
2018-12-15T00:59:26.644Z,101428.41
2018-12-15T01:01:59.237Z,101433.15
2018-12-15T01:04:31.145Z,101431.68
2018-12-15T01:07:03.197Z,101425.77
2018-12-15T01:09:35.668Z,101435.72
2018-12-15T01:12:07.700Z,101435.98
2018-12-15T01:14:40.004Z,101435.25
2018-12-15T01:17:12.217Z,101433.95
2018-12-15T01:19:44.463Z,101431.22
2018-12-15T01:22:16.539Z,101438.72
2018-12-15T01:24:49.316Z,101443.84
2018-12-15T01:27:21.058Z,101440.37
2018-12-15T01:29:53.543Z,101448.86
2018-12-15T01:32:23.867Z,101445.07
2018-12-15T01:34:56.166Z,101446.02
2018-12-15T01:37:27.070Z,101450.72
2018-12-15T01:39:59.463Z,101452.77
2018-12-15T01:42:31.973Z,101460.37
2018-12-15T01:45:06.395Z,101450.16
2018-12-15T01:47:35.200Z,101450.59
2018-12-15T01:50:07.350Z,101455.92
2018-12-15T01:52:39.467Z,101454.06
2018-12-15T01:55:11.590Z,101455.80
2018-12-15T01:57:44.151Z,101455.45
2018-12-15T02:00:16.190Z,101458.96
2018-12-15T02:02:46.544Z,101459.11
2018-12-15T02:05:18.684Z,101462.23
2018-12-15T02:07:51.008Z,101459.16
2018-12-15T02:10:22.564Z,101460.85
2018-12-15T02:12:55.080Z,101462.16
2018-12-15T02:15:27.342Z,101464.77
2018-12-15T02:18:00.098Z,101472.23
2018-12-15T02:20:31.903Z,101467.53
2018-12-15T02:23:04.883Z,101459.44
2018-12-15T02:25:37.313Z,101466.30
2018-12-15T02:28:09.337Z,101473.91
2018-12-15T02:30:41.645Z,101472.65
2018-12-15T02:33:16.029Z,101474.23
2018-12-15T02:35:47.921Z,101470.68
2018-12-15T02:38:20.016Z,101470.28
2018-12-15T02:40:52.407Z,101467.25
2018-12-15T02:43:25.147Z,101468.12
2018-12-15T02:45:58.219Z,101464.91
2018-12-15T02:48:31.956Z,101468.51
2018-12-15T02:51:04.416Z,101473.28
2018-12-15T02:53:37.510Z,101472.86
2018-12-15T02:56:10.353Z,101470.80
2018-12-15T02:58:44.620Z,101473.02
2018-12-15T03:01:15.732Z,101468.39
2018-12-15T03:03:50.124Z,101467.20
2018-12-15T03:06:23.162Z,101467.72
2018-12-15T03:08:58.953Z,101467.87
2018-12-15T03:11:32.795Z,101471.11
2018-12-15T03:14:06.361Z,101477.18
2018-12-15T03:16:43.988Z,101479.28
2018-12-15T03:19:17.344Z,101471.89
2018-12-15T03:21:49.732Z,101479.67
2018-12-15T03:24:22.302Z,101474.72
2018-12-15T03:26:54.803Z,101477.39
2018-12-15T03:29:29.232Z,101480.46
2018-12-15T03:32:02.524Z,101483.06
2018-12-15T03:34:36.281Z,101477.50
2018-12-15T03:37:08.512Z,101475.41
2018-12-15T03:39:41.924Z,101475.02
2018-12-15T03:42:12.488Z,101479.90
2018-12-15T03:44:45.062Z,101480.80
2018-12-15T03:47:15.901Z,101481.16
2018-12-15T03:49:48.726Z,101477.84
2018-12-15T03:52:22.355Z,101475.52
2018-12-15T03:54:55.918Z,101466.98
2018-12-15T03:57:29.139Z,101466.09
2018-12-15T04:00:03.224Z,101469.27
2018-12-15T04:02:39.615Z,101475.09
2018-12-15T04:05:09.897Z,101475.34
2018-12-15T04:07:43.131Z,101481.89
2018-12-15T04:10:15.492Z,101474.05
2018-12-15T04:12:48.281Z,101481.85
2018-12-15T04:15:21.482Z,101487.31
2018-12-15T04:18:03.455Z,101485.28
2018-12-15T04:20:33.722Z,101482.58
2018-12-15T04:23:06.696Z,101491.83
2018-12-15T04:25:39.249Z,101489.41
2018-12-15T04:28:11.948Z,101490.75
2018-12-15T04:30:44.487Z,101491.25
2018-12-15T04:33:15.336Z,101490.23
2018-12-15T04:35:47.221Z,101495.80
2018-12-15T04:38:19.217Z,101493.81
2018-12-15T04:40:51.876Z,101498.16
2018-12-15T04:43:24.125Z,101504.95
2018-12-15T04:45:55.853Z,101504.30
2018-12-15T04:48:29.419Z,101504.70
2018-12-15T04:51:03.481Z,101508.17
2018-12-15T04:53:38.873Z,101506.58
2018-12-15T04:56:12.311Z,101502.57
2018-12-15T04:58:45.432Z,101503.41
2018-12-15T05:01:19.004Z,101502.89
2018-12-15T05:03:52.269Z,101501.52
2018-12-15T05:06:25.122Z,101502.75
2018-12-15T05:08:58.436Z,101492.95
2018-12-15T05:11:31.233Z,101502.97
2018-12-15T05:14:04.280Z,101503.77
2018-12-15T05:16:38.613Z,101499.23
2018-12-15T05:19:26.750Z,101497.22
2018-12-15T05:21:59.658Z,101499.52
2018-12-15T05:24:32.368Z,101510.48
2018-12-15T05:27:06.867Z,101507.37
2018-12-15T05:29:40.195Z,101507.59
2018-12-15T05:32:13.040Z,101512.69
2018-12-15T05:34:50.887Z,101515.73
2018-12-15T05:37:24.296Z,101526.19
2018-12-15T05:39:57.398Z,101523.88
2018-12-15T05:42:30.715Z,101524.28
2018-12-15T05:45:03.909Z,101522.45
2018-12-15T05:47:38.372Z,101529.18
2018-12-15T05:50:10.956Z,101524.87
2018-12-15T05:52:43.963Z,101530.11
2018-12-15T05:55:20.016Z,101533.19
2018-12-15T05:57:55.508Z,101535.36
2018-12-15T06:00:28.185Z,101538.12
2018-12-15T06:03:02.243Z,101534.28
2018-12-15T06:05:36.438Z,101537.45
2018-12-15T06:08:08.920Z,101541.66
2018-12-15T06:10:41.936Z,101543.49
2018-12-15T06:13:15.269Z,101549.00
2018-12-15T06:15:48.502Z,101551.03
2018-12-15T06:18:21.470Z,101552.19
2018-12-15T06:20:52.532Z,101556.13
2018-12-15T06:23:25.706Z,101550.70
2018-12-15T06:25:56.615Z,101552.19
2018-12-15T06:28:30.481Z,101554.50
2018-12-15T06:31:03.851Z,101558.70
2018-12-15T06:33:36.759Z,101556.64
2018-12-15T06:36:12.788Z,101556.41
2018-12-15T06:38:45.352Z,101551.08
2018-12-15T06:41:18.426Z,101551.98
2018-12-15T06:43:51.100Z,101553.64
2018-12-15T06:46:24.274Z,101552.88
2018-12-15T06:48:57.357Z,101550.99
2018-12-15T06:51:30.875Z,101551.39
2018-12-15T06:54:04.872Z,101557.11
2018-12-15T06:59:09.542Z,101556.09
2018-12-15T07:01:42.143Z,101557.90
2018-12-15T07:04:15.509Z,101559.64
2018-12-15T07:06:47.885Z,101560.77
2018-12-15T07:09:21.292Z,101558.70
2018-12-15T07:11:53.927Z,101565.05
2018-12-15T07:14:26.624Z,101566.58
2018-12-15T07:16:58.005Z,101567.95
2018-12-15T07:19:30.057Z,101573.86
2018-12-15T07:22:02.360Z,101571.27
2018-12-15T07:24:34.806Z,101564.11
2018-12-15T07:27:09.198Z,101567.48
2018-12-15T07:29:41.064Z,101567.30
2018-12-15T07:32:13.392Z,101563.94
2018-12-15T07:34:45.746Z,101565.64
2018-12-15T07:37:18.879Z,101572.59
2018-12-15T07:39:52.085Z,101568.42
2018-12-15T07:42:26.422Z,101569.46
2018-12-15T07:44:59.122Z,101565.45
2018-12-15T07:47:31.859Z,101560.71
2018-12-15T07:50:05.084Z,101569.33
2018-12-15T07:52:37.244Z,101574.70
2018-12-15T07:55:08.859Z,101569.33
2018-12-15T07:57:40.925Z,101565.75
2018-12-15T08:00:13.404Z,101564.22
2018-12-15T08:02:45.613Z,101562.95
2018-12-15T08:05:18.860Z,101564.32
2018-12-15T08:07:51.376Z,101568.30
2018-12-15T08:10:25.127Z,101566.05
2018-12-15T08:12:57.760Z,101567.76
2018-12-15T08:15:29.952Z,101560.20
2018-12-15T08:18:02.228Z,101561.25
2018-12-15T08:20:34.650Z,101557.24
2018-12-15T08:23:09.695Z,101564.35
2018-12-15T08:25:42.399Z,101561.88
2018-12-15T08:28:14.468Z,101557.47
2018-12-15T08:30:46.992Z,101562.67
2018-12-15T08:33:18.612Z,101566.58
2018-12-15T08:35:52.207Z,101567.88
2018-12-15T08:38:29.207Z,101573.45
2018-12-15T08:41:01.282Z,101576.13
2018-12-15T08:43:33.236Z,101578.88
2018-12-15T08:46:07.283Z,101580.50
2018-12-15T08:48:39.519Z,101579.79
2018-12-15T08:51:12.268Z,101578.88
2018-12-15T08:53:45.263Z,101581.16
2018-12-15T08:56:17.175Z,101579.36
2018-12-15T08:58:49.232Z,101577.17
2018-12-15T09:01:21.296Z,101570.84
2018-12-15T09:03:53.762Z,101571.83
2018-12-15T09:06:25.971Z,101572.98
2018-12-15T09:09:12.071Z,101576.00
2018-12-15T09:11:44.022Z,101582.98
2018-12-15T09:14:18.085Z,101584.18
2018-12-15T09:16:50.467Z,101584.28
2018-12-15T09:19:22.771Z,101578.94
2018-12-15T09:21:54.699Z,101577.60
2018-12-15T09:24:25.318Z,101582.66
2018-12-15T09:26:59.732Z,101586.68
2018-12-15T09:29:35.569Z,101587.95
2018-12-15T09:32:10.705Z,101583.80
2018-12-15T09:34:45.059Z,101590.68
2018-12-15T09:37:20.173Z,101584.81
2018-12-15T09:39:54.668Z,101578.03
2018-12-15T09:42:29.193Z,101581.51
2018-12-15T09:45:02.322Z,101579.97
2018-12-15T09:47:34.797Z,101581.20
2018-12-15T09:50:07.903Z,101577.00
2018-12-15T09:52:40.731Z,101569.01
2018-12-15T09:55:13.607Z,101570.05
2018-12-15T09:57:47.177Z,101565.75
2018-12-15T10:00:19.859Z,101562.35
2018-12-15T10:02:50.542Z,101560.80
2018-12-15T10:05:23.344Z,101558.41
2018-12-15T10:07:56.865Z,101561.56
2018-12-15T10:10:29.832Z,101555.98
2018-12-15T10:13:01.525Z,101551.32
2018-12-15T10:15:36.113Z,101555.33
2018-12-15T10:18:08.954Z,101546.41
2018-12-15T10:20:42.595Z,101539.45
2018-12-15T10:23:15.150Z,101535.48
2018-12-15T10:26:07.609Z,101534.97
2018-12-15T10:28:39.581Z,101533.01
2018-12-15T10:31:17.106Z,101533.88
2018-12-15T10:33:50.242Z,101529.45
2018-12-15T10:36:23.054Z,101530.52
2018-12-15T10:38:56.826Z,101526.14
2018-12-15T10:41:29.038Z,101529.06
2018-12-15T10:44:02.324Z,101528.73
2018-12-15T10:46:34.389Z,101513.83
2018-12-15T10:49:15.728Z,101516.75
2018-12-15T10:51:55.687Z,101520.34
2018-12-15T10:54:27.993Z,101514.18
2018-12-15T10:57:00.055Z,101509.16
2018-12-15T10:59:34.604Z,101510.08
2018-12-15T11:02:07.639Z,101515.21
2018-12-15T11:04:40.977Z,101507.98
2018-12-15T11:07:13.981Z,101515.02
2018-12-15T11:09:46.559Z,101507.98
2018-12-15T11:12:18.828Z,101506.23
2018-12-15T11:14:51.520Z,101507.06
2018-12-15T11:17:23.616Z,101500.81
2018-12-15T11:19:56.016Z,101493.05
2018-12-15T11:22:28.824Z,101498.79
2018-12-15T11:25:03.060Z,101492.53
2018-12-15T11:27:35.433Z,101488.06
2018-12-15T11:30:10.614Z,101493.78
2018-12-15T11:32:43.184Z,101490.60
2018-12-15T11:35:15.192Z,101485.66
2018-12-15T11:37:47.413Z,101485.27
2018-12-15T11:40:19.732Z,101488.41
2018-12-15T11:42:57.631Z,101483.39
2018-12-15T11:45:27.885Z,101486.53
2018-12-15T11:48:00.210Z,101483.70
2018-12-15T11:50:32.277Z,101481.54
2018-12-15T11:53:04.764Z,101483.09
2018-12-15T11:55:37.366Z,101482.75
2018-12-15T11:58:09.736Z,101475.62
2018-12-15T12:00:42.357Z,101473.18
2018-12-15T12:03:14.737Z,101475.70
2018-12-15T12:05:46.955Z,101467.14
2018-12-15T12:08:19.565Z,101462.72
2018-12-15T12:10:51.911Z,101464.11
2018-12-15T12:13:23.938Z,101464.33
2018-12-15T12:15:56.426Z,101452.45
2018-12-15T12:18:30.757Z,101461.29
2018-12-15T12:21:02.757Z,101452.42
2018-12-15T12:23:34.877Z,101461.93
2018-12-15T12:26:07.957Z,101457.45
2018-12-15T12:28:38.480Z,101460.11
2018-12-15T12:31:13.063Z,101458.66
2018-12-15T12:33:44.185Z,101461.31
2018-12-15T12:36:16.651Z,101462.14
2018-12-15T12:38:48.908Z,101463.84
2018-12-15T12:41:21.358Z,101465.16
2018-12-15T12:43:54.352Z,101466.37
2018-12-15T12:46:25.488Z,101459.16
2018-12-15T12:48:58.388Z,101455.55
2018-12-15T12:51:30.594Z,101455.77
2018-12-15T12:54:03.302Z,101453.20
2018-12-15T12:56:35.744Z,101454.37
2018-12-15T13:02:01.628Z,101458.37
2018-12-15T13:04:33.990Z,101456.28
2018-12-15T13:07:06.354Z,101458.62
2018-12-15T13:09:39.160Z,101451.06
2018-12-15T13:12:12.281Z,101450.55
2018-12-15T13:14:42.666Z,101454.98
2018-12-15T13:17:15.471Z,101451.85
2018-12-15T13:19:47.848Z,101457.94
2018-12-15T13:22:20.803Z,101456.16
2018-12-15T13:24:50.820Z,101458.11
2018-12-15T13:27:22.156Z,101462.06
2018-12-15T13:29:55.017Z,101460.44
2018-12-15T13:32:27.036Z,101463.87
2018-12-15T13:34:59.381Z,101467.56
2018-12-15T13:37:33.910Z,101466.77
2018-12-15T13:40:07.101Z,101470.13
2018-12-15T13:42:42.803Z,101461.05
2018-12-15T13:45:17.050Z,101462.43
2018-12-15T13:47:51.867Z,101457.28
2018-12-15T13:50:26.768Z,101457.88
2018-12-15T13:53:00.995Z,101468.11
2018-12-15T13:55:35.169Z,101463.34
2018-12-15T13:58:10.156Z,101459.53
2018-12-15T14:00:43.763Z,101460.09
2018-12-15T14:03:16.293Z,101458.35
2018-12-15T14:05:47.547Z,101458.23
2018-12-15T14:08:18.026Z,101456.19
2018-12-15T14:10:50.829Z,101455.05
2018-12-15T14:13:24.478Z,101451.73
2018-12-15T14:18:54.632Z,101452.29
2018-12-15T14:21:26.475Z,101452.60
2018-12-15T14:23:58.607Z,101453.99
2018-12-15T14:26:32.880Z,101457.50
2018-12-15T14:29:07.182Z,101447.28
2018-12-15T14:31:39.426Z,101444.48
2018-12-15T14:34:13.654Z,101443.05
2018-12-15T14:36:47.954Z,101437.92
2018-12-15T14:39:22.779Z,101435.16
2018-12-15T14:41:55.506Z,101433.31
2018-12-15T14:44:29.530Z,101434.72
2018-12-15T14:47:03.716Z,101433.58
2018-12-15T14:49:38.040Z,101428.55
2018-12-15T14:52:11.967Z,101431.25
2018-12-15T14:54:44.574Z,101430.55
2018-12-15T14:57:22.162Z,101427.06
2018-12-15T14:59:55.040Z,101425.12
2018-12-15T15:02:29.385Z,101417.18
2018-12-15T15:05:02.977Z,101420.91
2018-12-15T15:07:35.317Z,101415.11
2018-12-15T15:10:08.125Z,101422.84
2018-12-15T15:12:40.531Z,101420.55
2018-12-15T15:15:22.003Z,101422.84
2018-12-15T15:18:00.545Z,101428.22
2018-12-15T15:20:33.097Z,101423.52
2018-12-15T15:23:08.179Z,101420.13
2018-12-15T15:25:40.237Z,101415.70
2018-12-15T15:28:12.516Z,101409.20
2018-12-15T15:30:46.104Z,101412.13
2018-12-15T15:33:27.817Z,101408.16
2018-12-15T15:36:00.365Z,101409.43
2018-12-15T15:38:32.550Z,101403.91
2018-12-15T15:41:05.174Z,101402.64
2018-12-15T15:43:39.884Z,101402.22
2018-12-15T15:46:12.455Z,101397.75
2018-12-15T15:48:44.829Z,101398.55
2018-12-15T15:51:17.197Z,101393.33
2018-12-15T15:53:49.453Z,101393.80
2018-12-15T15:56:23.902Z,101401.72
2018-12-15T15:58:56.405Z,101398.25
2018-12-15T16:01:28.965Z,101394.63
2018-12-15T16:04:01.032Z,101390.14
2018-12-15T16:06:33.707Z,101388.41
2018-12-15T16:09:09.184Z,101390.54
2018-12-15T16:11:43.114Z,101389.31
2018-12-15T16:14:15.366Z,101383.01
2018-12-15T16:16:47.774Z,101369.88
2018-12-15T16:19:22.236Z,101368.84
2018-12-15T16:21:54.769Z,101365.34
2018-12-15T16:24:27.129Z,101366.20
2018-12-15T16:26:59.200Z,101363.31
2018-12-15T16:29:32.024Z,101366.05
2018-12-15T16:32:03.904Z,101356.27
2018-12-15T16:34:36.369Z,101359.89
2018-12-15T16:37:08.443Z,101358.70
2018-12-15T16:39:40.769Z,101357.69
2018-12-15T16:42:13.659Z,101365.21
2018-12-15T16:44:45.710Z,101368.08
2018-12-15T16:47:17.864Z,101360.50
2018-12-15T16:52:42.289Z,101353.20
2018-12-15T16:55:14.335Z,101355.40
2018-12-15T16:57:46.482Z,101350.80
2018-12-15T17:00:16.682Z,101346.14
2018-12-15T17:02:46.986Z,101354.55
2018-12-15T17:05:19.251Z,101348.98
2018-12-15T17:07:51.747Z,101347.34
2018-12-15T17:10:22.009Z,101342.71
2018-12-15T17:12:55.360Z,101340.61
2018-12-15T17:15:27.515Z,101346.30
2018-12-15T17:17:59.651Z,101343.56
2018-12-15T17:20:31.786Z,101335.33
2018-12-15T17:23:04.150Z,101337.44
2018-12-15T17:25:38.844Z,101335.98
2018-12-15T17:28:10.669Z,101334.72
2018-12-15T17:30:41.161Z,101335.23
2018-12-15T17:33:13.305Z,101332.20
2018-12-15T17:35:45.594Z,101329.15
2018-12-15T17:38:16.004Z,101325.47
2018-12-15T17:40:48.345Z,101319.62
2018-12-15T17:43:21.088Z,101315.66
2018-12-15T17:45:51.237Z,101310.69
2018-12-15T17:48:25.630Z,101309.61
2018-12-15T17:51:03.078Z,101308.45
2018-12-15T17:53:31.844Z,101300.04
2018-12-15T17:56:04.900Z,101296.22
2018-12-15T17:58:37.463Z,101296.64
2018-12-15T18:01:09.821Z,101292.06
2018-12-15T18:03:42.078Z,101288.30
2018-12-15T18:06:16.419Z,101283.71
2018-12-15T18:08:48.324Z,101284.44
2018-12-15T18:11:20.603Z,101279.09
2018-12-15T18:13:53.079Z,101271.58
2018-12-15T18:16:24.673Z,101267.92
2018-12-15T18:18:57.232Z,101264.48
2018-12-15T18:21:29.015Z,101268.86
2018-12-15T18:31:33.341Z,101261.42
2018-12-15T18:34:05.354Z,101264.37
2018-12-15T18:36:37.611Z,101261.93
2018-12-15T18:39:09.732Z,101250.78
2018-12-15T18:41:42.064Z,101251.72
2018-12-15T18:44:12.454Z,101247.23
2018-12-15T18:46:44.385Z,101250.38
2018-12-15T18:49:16.801Z,101256.45
2018-12-15T18:51:49.192Z,101245.14
2018-12-15T18:54:21.417Z,101241.36
2018-12-15T18:56:53.457Z,101230.64
2018-12-15T18:59:25.854Z,101234.98
2018-12-15T19:01:57.879Z,101240.17
2018-12-15T19:04:30.512Z,101235.45
2018-12-15T19:07:02.407Z,101231.11
2018-12-15T19:09:34.722Z,101229.50
2018-12-15T19:12:06.870Z,101223.98
2018-12-15T19:14:40.337Z,101222.72
2018-12-15T19:17:13.025Z,101220.13
2018-12-15T19:19:43.568Z,101216.97
2018-12-15T19:22:15.777Z,101210.07
2018-12-15T19:24:47.899Z,101203.09
2018-12-15T19:27:20.396Z,101198.25
2018-12-15T19:29:52.256Z,101196.79
2018-12-15T19:34:56.543Z,101195.45
2018-12-15T19:37:28.512Z,101196.75
2018-12-15T19:40:03.735Z,101201.74
2018-12-15T19:42:34.045Z,101192.68
2018-12-15T19:45:09.431Z,101187.84
2018-12-15T19:47:41.748Z,101188.30
2018-12-15T19:50:14.128Z,101189.56
2018-12-15T19:52:44.610Z,101179.11
2018-12-15T19:55:16.911Z,101175.22
2018-12-15T19:57:48.935Z,101175.61
2018-12-15T20:00:21.253Z,101173.35
2018-12-15T20:02:53.728Z,101167.19
2018-12-15T20:05:25.927Z,101165.47
2018-12-15T20:07:58.355Z,101159.95
2018-12-15T20:10:30.366Z,101163.08
2018-12-15T20:13:02.393Z,101152.94
2018-12-15T20:15:34.483Z,101151.33
2018-12-15T20:18:06.765Z,101146.03
2018-12-15T20:20:38.541Z,101145.95
2018-12-15T20:23:10.756Z,101146.30
2018-12-15T20:25:42.948Z,101137.14
2018-12-15T20:28:15.986Z,101144.52
2018-12-15T20:30:48.500Z,101138.06
2018-12-15T20:33:20.696Z,101136.54
2018-12-15T20:38:22.997Z,101139.14
2018-12-15T20:40:56.876Z,101138.62
2018-12-15T20:43:29.218Z,101136.02
2018-12-15T20:45:59.439Z,101125.31
2018-12-15T20:48:32.431Z,101116.03
2018-12-15T20:51:04.344Z,101116.12
2018-12-15T20:53:36.508Z,101115.73
2018-12-15T20:56:08.685Z,101105.23
2018-12-15T20:58:38.899Z,101101.12
2018-12-15T21:01:11.188Z,101094.05
2018-12-15T21:03:43.991Z,101096.61
2018-12-15T21:06:15.884Z,101089.71
2018-12-15T21:08:48.451Z,101093.09
2018-12-15T21:11:24.153Z,101092.31
2018-12-15T21:13:56.716Z,101087.59
2018-12-15T21:16:28.461Z,101085.38
2018-12-15T21:19:01.003Z,101080.47
2018-12-15T21:21:30.992Z,101080.08
2018-12-15T21:24:03.365Z,101071.80
2018-12-15T21:26:38.077Z,101077.83
2018-12-15T21:29:09.955Z,101067.91
2018-12-15T21:31:42.470Z,101063.47
2018-12-15T21:34:15.094Z,101059.52
2018-12-15T21:36:49.877Z,101058.31
2018-12-15T21:41:54.188Z,101043.61
2018-12-15T21:44:26.554Z,101035.23
2018-12-15T21:46:58.779Z,101037.94
2018-12-15T21:49:31.094Z,101032.39
2018-12-15T21:52:03.222Z,101023.37
2018-12-15T21:54:35.761Z,101021.07
2018-12-15T22:00:01.470Z,101016.40
2018-12-15T22:02:34.304Z,101009.06
2018-12-15T22:05:06.567Z,100999.48
2018-12-15T22:07:40.586Z,100997.02
2018-12-15T22:10:12.201Z,100989.27
2018-12-15T22:12:45.304Z,100983.00
2018-12-15T22:15:19.704Z,100979.20
2018-12-15T22:17:51.875Z,100970.10
2018-12-15T22:20:25.978Z,100964.09
2018-12-15T22:22:57.929Z,100965.33
2018-12-15T22:25:30.335Z,100963.02
2018-12-15T22:28:02.601Z,100963.84
2018-12-15T22:30:35.116Z,100958.15
2018-12-15T22:33:07.378Z,100951.25
2018-12-15T22:35:37.517Z,100949.91
2018-12-15T22:38:10.152Z,100948.02
2018-12-15T22:40:42.061Z,100946.19
2018-12-15T22:43:14.367Z,100940.17
2018-12-15T22:45:47.020Z,100934.20
2018-12-15T22:48:19.642Z,100929.59
2018-12-15T22:50:51.798Z,100934.80
2018-12-15T22:53:24.012Z,100927.88
2018-12-15T22:55:57.188Z,100930.09
2018-12-15T22:58:29.742Z,100923.64
2018-12-15T23:01:06.876Z,100928.16
2018-12-15T23:03:39.335Z,100926.48
2018-12-15T23:06:11.705Z,100922.28
2018-12-15T23:08:44.164Z,100919.97
2018-12-15T23:11:16.852Z,100917.47
2018-12-15T23:16:43.470Z,100905.66
2018-12-15T23:19:15.533Z,100899.97
2018-12-15T23:21:47.626Z,100904.02
2018-12-15T23:24:17.998Z,100899.97
2018-12-15T23:26:50.935Z,100895.13
2018-12-15T23:29:26.515Z,100889.39
2018-12-15T23:31:58.345Z,100887.77
2018-12-15T23:34:30.909Z,100888.58
2018-12-15T23:37:03.136Z,100880.45
2018-12-15T23:39:35.531Z,100869.11
2018-12-15T23:42:10.176Z,100869.66
2018-12-15T23:44:42.446Z,100858.23
2018-12-15T23:47:14.008Z,100852.24
2018-12-15T23:49:46.163Z,100845.97
2018-12-15T23:52:23.333Z,100849.17
2018-12-15T23:54:53.305Z,100842.22
2018-12-15T23:57:26.757Z,100841.31
2018-12-15T23:59:58.503Z,100829.53
